sensor_id;sensor_type;location;lat;lon;timestamp;pressure;altitude;pressure_sealevel;temperature;humidity
50650;BME280;36621;60.058;30.346;2023-04-04T00:06:23;101960.41;;;-0.16;62.71
50650;BME280;36621;60.058;30.346;2023-04-04T00:13:57;102069.19;;;0.61;62.92
50650;BME280;36621;60.058;30.346;2023-04-04T00:21:52;101919.84;;;-0.29;62.68
50650;BME280;36621;60.058;30.346;2023-04-04T00:29:39;102005.81;;;0.19;62.92
50650;BME280;36621;60.058;30.346;2023-04-04T00:37:11;102047.41;;;0.39;63.09
50650;BME280;36621;60.058;30.346;2023-04-04T00:44:47;101939.81;;;-0.15;62.68
50650;BME280;36621;60.058;30.346;2023-04-04T00:52:19;101922.41;;;-0.44;63.10
50650;BME280;36621;60.058;30.346;2023-04-04T00:59:58;101970.66;;;-0.11;63.30
50650;BME280;36621;60.058;30.346;2023-04-04T01:07:57;102000.50;;;0.10;63.33
50650;BME280;36621;60.058;30.346;2023-04-04T01:15:30;102036.50;;;0.32;63.47
50650;BME280;36621;60.058;30.346;2023-04-04T01:23:02;101977.53;;;-0.09;63.63
50650;BME280;36621;60.058;30.346;2023-04-04T01:30:53;102034.34;;;0.28;64.17
50650;BME280;36621;60.058;30.346;2023-04-04T01:38:48;101884.69;;;-0.51;64.03
50650;BME280;36621;60.058;30.346;2023-04-04T01:46:36;101887.19;;;-0.49;63.84
50650;BME280;36621;60.058;30.346;2023-04-04T01:54:09;102009.47;;;0.34;63.98
50650;BME280;36621;60.058;30.346;2023-04-04T02:01:43;101953.34;;;-0.01;64.33
50650;BME280;36621;60.058;30.346;2023-04-04T02:09:15;101964.59;;;0.03;64.53
50650;BME280;36621;60.058;30.346;2023-04-04T02:17:09;101918.97;;;-0.05;63.98
50650;BME280;36621;60.058;30.346;2023-04-04T02:24:49;101997.56;;;0.28;64.50
50650;BME280;36621;60.058;30.346;2023-04-04T02:32:23;101982.69;;;0.09;64.60
50650;BME280;36621;60.058;30.346;2023-04-04T02:40:05;102008.84;;;0.15;64.34
50650;BME280;36621;60.058;30.346;2023-04-04T02:47:49;101972.25;;;0.14;64.46
50650;BME280;36621;60.058;30.346;2023-04-04T02:55:25;101963.22;;;0.07;64.14
50650;BME280;36621;60.058;30.346;2023-04-04T03:03:01;101977.31;;;0.17;64.14
50650;BME280;36621;60.058;30.346;2023-04-04T03:10:38;101998.09;;;0.24;64.17
50650;BME280;36621;60.058;30.346;2023-04-04T03:18:16;101998.78;;;0.17;64.46
50650;BME280;36621;60.058;30.346;2023-04-04T03:25:48;101965.59;;;-0.06;64.13
50650;BME280;36621;60.058;30.346;2023-04-04T03:33:24;101968.44;;;0.01;64.69
50650;BME280;36621;60.058;30.346;2023-04-04T03:41:02;101997.41;;;0.22;64.58
50650;BME280;36621;60.058;30.346;2023-04-04T03:48:39;102009.13;;;0.29;63.93
50650;BME280;36621;60.058;30.346;2023-04-04T03:56:15;101941.78;;;-0.09;64.23
50650;BME280;36621;60.058;30.346;2023-04-04T04:03:53;101943.13;;;-0.05;64.34
50650;BME280;36621;60.058;30.346;2023-04-04T04:11:28;101929.06;;;-0.07;64.29
50650;BME280;36621;60.058;30.346;2023-04-04T04:19:06;101899.44;;;0.09;64.30
50650;BME280;36621;60.058;30.346;2023-04-04T04:26:42;101825.41;;;-0.25;63.50
50650;BME280;36621;60.058;30.346;2023-04-04T04:34:56;101818.97;;;-0.07;63.24
50650;BME280;36621;60.058;30.346;2023-04-04T04:43:08;101827.63;;;0.03;62.71
50650;BME280;36621;60.058;30.346;2023-04-04T04:50:43;101911.44;;;0.84;62.06
50650;BME280;36621;60.058;30.346;2023-04-04T04:58:16;101951.16;;;1.44;61.20
50650;BME280;36621;60.058;30.346;2023-04-04T05:05:55;101910.28;;;1.40;60.57
50650;BME280;36621;60.058;30.346;2023-04-04T17:47:05;101995.53;;;2.16;63.77
50650;BME280;36621;60.058;30.346;2023-04-04T17:55:04;101913.31;;;1.75;64.08
50650;BME280;36621;60.058;30.346;2023-04-04T18:02:52;102027.03;;;2.45;63.57
50650;BME280;36621;60.058;30.346;2023-04-04T18:10:24;102012.97;;;2.50;64.00
50650;BME280;36621;60.058;30.346;2023-04-04T18:17:57;102005.56;;;2.22;65.03
50650;BME280;36621;60.058;30.346;2023-04-04T18:25:29;102000.00;;;2.08;65.64
50650;BME280;36621;60.058;30.346;2023-04-04T18:33:32;102000.91;;;2.31;66.01
50650;BME280;36621;60.058;30.346;2023-04-04T18:41:10;102015.59;;;2.43;65.51
50650;BME280;36621;60.058;30.346;2023-04-04T18:48:43;102016.34;;;2.52;65.65
50650;BME280;36621;60.058;30.346;2023-04-04T18:56:15;102005.94;;;2.19;66.58
50650;BME280;36621;60.058;30.346;2023-04-04T19:03:48;101997.94;;;1.96;67.45
50650;BME280;36621;60.058;30.346;2023-04-04T19:11:22;102014.09;;;2.11;67.40
50650;BME280;36621;60.058;30.346;2023-04-04T19:18:55;102004.25;;;2.18;67.22
50650;BME280;36621;60.058;30.346;2023-04-04T19:35:44;101968.50;;;1.79;68.58
50650;BME280;36621;60.058;30.346;2023-04-04T19:43:45;102015.91;;;2.18;68.62
50650;BME280;36621;60.058;30.346;2023-04-04T19:51:46;102020.63;;;2.16;69.02
50650;BME280;36621;60.058;30.346;2023-04-04T19:59:59;102021.91;;;2.35;68.53
50650;BME280;36621;60.058;30.346;2023-04-04T20:07:40;102019.16;;;2.29;68.75
50650;BME280;36621;60.058;30.346;2023-04-04T20:15:17;102033.56;;;2.36;68.81
50650;BME280;36621;60.058;30.346;2023-04-04T20:23:10;102030.56;;;2.16;69.63
50650;BME280;36621;60.058;30.346;2023-04-04T20:30:42;101999.06;;;2.16;68.91
50650;BME280;36621;60.058;30.346;2023-04-04T20:38:18;101978.97;;;1.89;70.06
50650;BME280;36621;60.058;30.346;2023-04-04T20:45:51;102012.91;;;2.13;69.83
50650;BME280;36621;60.058;30.346;2023-04-04T20:53:24;102026.47;;;2.20;70.14
50650;BME280;36621;60.058;30.346;2023-04-04T21:00:59;101936.44;;;1.84;70.14
50650;BME280;36621;60.058;30.346;2023-04-04T21:08:37;102022.50;;;2.46;69.91
50650;BME280;36621;60.058;30.346;2023-04-04T21:16:10;102035.47;;;1.97;71.45
50650;BME280;36621;60.058;30.346;2023-04-04T21:23:45;102021.06;;;2.05;71.39
50650;BME280;36621;60.058;30.346;2023-04-04T21:31:20;102045.44;;;2.26;70.96
50650;BME280;36621;60.058;30.346;2023-04-04T21:38:55;102054.06;;;2.37;70.49
50650;BME280;36621;60.058;30.346;2023-04-04T21:46:30;102027.13;;;2.22;70.21
50650;BME280;36621;60.058;30.346;2023-04-04T21:54:03;102082.06;;;2.36;70.88
50650;BME280;36621;60.058;30.346;2023-04-04T22:01:35;102073.22;;;2.27;70.79
50650;BME280;36621;60.058;30.346;2023-04-04T22:09:09;102072.56;;;2.25;70.73
50650;BME280;36621;60.058;30.346;2023-04-04T22:16:45;102019.69;;;2.09;69.78
50650;BME280;36621;60.058;30.346;2023-04-04T22:24:17;102075.75;;;2.43;69.69
50650;BME280;36621;60.058;30.346;2023-04-04T22:31:51;102078.31;;;2.37;69.46
50650;BME280;36621;60.058;30.346;2023-04-04T22:39:23;102080.56;;;2.33;69.68
50650;BME280;36621;60.058;30.346;2023-04-04T22:46:55;102074.16;;;2.34;69.27
50650;BME280;36621;60.058;30.346;2023-04-04T22:54:29;102087.38;;;2.59;68.46
50650;BME280;36621;60.058;30.346;2023-04-04T23:02:01;102081.97;;;2.59;68.39
50650;BME280;36621;60.058;30.346;2023-04-04T23:09:33;102079.84;;;2.54;68.36
50650;BME280;36621;60.058;30.346;2023-04-04T23:17:05;102080.75;;;2.47;68.10
50650;BME280;36621;60.058;30.346;2023-04-04T23:24:38;102070.53;;;2.57;67.59
50650;BME280;36621;60.058;30.346;2023-04-04T23:32:10;102108.81;;;2.67;67.39
50650;BME280;36621;60.058;30.346;2023-04-04T23:39:42;102090.41;;;2.41;68.05
50650;BME280;36621;60.058;30.346;2023-04-04T23:47:15;102092.47;;;2.54;67.59
50650;BME280;36621;60.058;30.346;2023-04-04T23:54:48;102098.72;;;2.69;67.37
